sensor_id;sensor_type;location;lat;lon;timestamp;temperature;humidity
6206;DHT22;3136;48.788;9.772;2023-04-03T00:00:50;4.50;99.90
6206;DHT22;3136;48.788;9.772;2023-04-03T00:03:17;3.70;99.90
6206;DHT22;3136;48.788;9.772;2023-04-03T00:05:43;3.70;99.90
6206;DHT22;3136;48.788;9.772;2023-04-03T00:08:08;3.70;99.90
6206;DHT22;3136;48.788;9.772;2023-04-03T00:10:35;3.70;99.90
6206;DHT22;3136;48.788;9.772;2023-04-03T00:13:02;3.80;99.90
6206;DHT22;3136;48.788;9.772;2023-04-03T00:15:28;3.80;99.90
6206;DHT22;3136;48.788;9.772;2023-04-03T00:17:54;3.70;99.90
6206;DHT22;3136;48.788;9.772;2023-04-03T00:20:20;3.70;99.90
6206;DHT22;3136;48.788;9.772;2023-04-03T00:22:45;3.80;99.90
6206;DHT22;3136;48.788;9.772;2023-04-03T00:25:11;3.70;99.90
6206;DHT22;3136;48.788;9.772;2023-04-03T00:27:38;3.70;99.90
6206;DHT22;3136;48.788;9.772;2023-04-03T00:30:05;3.70;99.90
6206;DHT22;3136;48.788;9.772;2023-04-03T00:32:32;3.80;99.90
6206;DHT22;3136;48.788;9.772;2023-04-03T00:34:57;3.80;99.90
6206;DHT22;3136;48.788;9.772;2023-04-03T00:37:23;3.80;99.90
6206;DHT22;3136;48.788;9.772;2023-04-03T00:39:49;3.70;99.90
6206;DHT22;3136;48.788;9.772;2023-04-03T00:42:14;3.70;99.90
6206;DHT22;3136;48.788;9.772;2023-04-03T00:47:07;3.60;99.90
6206;DHT22;3136;48.788;9.772;2023-04-03T00:49:34;3.60;99.90
6206;DHT22;3136;48.788;9.772;2023-04-03T00:52:00;3.60;99.90
6206;DHT22;3136;48.788;9.772;2023-04-03T00:54:26;3.50;99.90
6206;DHT22;3136;48.788;9.772;2023-04-03T00:56:53;3.50;99.90
6206;DHT22;3136;48.788;9.772;2023-04-03T00:59:33;3.40;99.90
6206;DHT22;3136;48.788;9.772;2023-04-03T01:01:59;3.40;99.90
6206;DHT22;3136;48.788;9.772;2023-04-03T01:04:34;3.30;99.90
6206;DHT22;3136;48.788;9.772;2023-04-03T01:07:09;3.30;99.90
6206;DHT22;3136;48.788;9.772;2023-04-03T01:09:36;3.30;99.90
6206;DHT22;3136;48.788;9.772;2023-04-03T01:12:15;3.20;99.90
6206;DHT22;3136;48.788;9.772;2023-04-03T01:14:42;3.20;99.90
6206;DHT22;3136;48.788;9.772;2023-04-03T01:17:40;3.30;99.90
6206;DHT22;3136;48.788;9.772;2023-04-03T01:25:40;3.30;99.90
6206;DHT22;3136;48.788;9.772;2023-04-03T01:28:08;3.30;99.90
6206;DHT22;3136;48.788;9.772;2023-04-03T01:30:41;3.30;99.90
6206;DHT22;3136;48.788;9.772;2023-04-03T01:33:08;3.30;99.90
6206;DHT22;3136;48.788;9.772;2023-04-03T01:35:34;3.40;99.90
6206;DHT22;3136;48.788;9.772;2023-04-03T01:37:59;3.20;99.90
6206;DHT22;3136;48.788;9.772;2023-04-03T01:40:25;3.20;99.90
6206;DHT22;3136;48.788;9.772;2023-04-03T01:42:51;3.20;99.90
6206;DHT22;3136;48.788;9.772;2023-04-03T01:45:17;3.30;99.90
6206;DHT22;3136;48.788;9.772;2023-04-03T01:47:42;3.30;99.90
6206;DHT22;3136;48.788;9.772;2023-04-03T01:50:08;3.40;99.90
6206;DHT22;3136;48.788;9.772;2023-04-03T01:52:34;3.30;99.90
6206;DHT22;3136;48.788;9.772;2023-04-03T01:54:59;3.40;99.90
6206;DHT22;3136;48.788;9.772;2023-04-03T01:57:25;3.40;99.90
6206;DHT22;3136;48.788;9.772;2023-04-03T01:59:50;3.50;99.90
6206;DHT22;3136;48.788;9.772;2023-04-03T02:02:16;3.50;99.90
6206;DHT22;3136;48.788;9.772;2023-04-03T02:04:42;3.50;99.90
6206;DHT22;3136;48.788;9.772;2023-04-03T02:07:07;3.50;99.90
6206;DHT22;3136;48.788;9.772;2023-04-03T02:09:33;3.60;99.90
6206;DHT22;3136;48.788;9.772;2023-04-03T02:11:58;3.60;99.90
6206;DHT22;3136;48.788;9.772;2023-04-03T02:14:24;3.60;99.90
6206;DHT22;3136;48.788;9.772;2023-04-03T02:16:50;3.60;99.90
6206;DHT22;3136;48.788;9.772;2023-04-03T02:19:15;5.40;99.90
6206;DHT22;3136;48.788;9.772;2023-04-03T02:21:41;3.60;99.90
6206;DHT22;3136;48.788;9.772;2023-04-03T02:24:07;6.00;99.90
6206;DHT22;3136;48.788;9.772;2023-04-03T02:26:33;3.60;99.90
6206;DHT22;3136;48.788;9.772;2023-04-03T02:28:58;3.60;99.90
6206;DHT22;3136;48.788;9.772;2023-04-03T02:31:24;3.60;99.90
6206;DHT22;3136;48.788;9.772;2023-04-03T02:33:50;3.60;99.90
6206;DHT22;3136;48.788;9.772;2023-04-03T02:36:16;3.60;99.90
6206;DHT22;3136;48.788;9.772;2023-04-03T02:38:41;3.60;99.90
6206;DHT22;3136;48.788;9.772;2023-04-03T02:41:09;3.60;99.90
6206;DHT22;3136;48.788;9.772;2023-04-03T02:43:35;3.60;99.90
6206;DHT22;3136;48.788;9.772;2023-04-03T02:46:01;3.60;99.90
6206;DHT22;3136;48.788;9.772;2023-04-03T02:48:27;3.60;99.90
6206;DHT22;3136;48.788;9.772;2023-04-03T02:50:53;3.60;99.90
6206;DHT22;3136;48.788;9.772;2023-04-03T02:53:18;3.60;99.90
6206;DHT22;3136;48.788;9.772;2023-04-03T02:55:44;3.60;99.90
6206;DHT22;3136;48.788;9.772;2023-04-03T02:58:10;3.60;99.90
6206;DHT22;3136;48.788;9.772;2023-04-03T03:00:36;3.60;99.90
6206;DHT22;3136;48.788;9.772;2023-04-03T03:03:02;3.80;99.90
6206;DHT22;3136;48.788;9.772;2023-04-03T03:05:28;3.60;99.90
6206;DHT22;3136;48.788;9.772;2023-04-03T03:07:54;3.60;99.90
6206;DHT22;3136;48.788;9.772;2023-04-03T03:10:20;3.60;99.90
6206;DHT22;3136;48.788;9.772;2023-04-03T03:12:45;3.60;99.90
6206;DHT22;3136;48.788;9.772;2023-04-03T03:15:11;3.60;99.90
6206;DHT22;3136;48.788;9.772;2023-04-03T03:17:37;3.50;99.90
6206;DHT22;3136;48.788;9.772;2023-04-03T03:20:04;3.50;99.90
6206;DHT22;3136;48.788;9.772;2023-04-03T03:22:30;3.50;99.90
6206;DHT22;3136;48.788;9.772;2023-04-03T03:24:55;3.50;99.90
6206;DHT22;3136;48.788;9.772;2023-04-03T03:27:21;3.50;99.90
6206;DHT22;3136;48.788;9.772;2023-04-03T03:29:46;3.50;99.90
6206;DHT22;3136;48.788;9.772;2023-04-03T03:32:12;3.50;99.90
6206;DHT22;3136;48.788;9.772;2023-04-03T03:34:38;3.50;99.90
6206;DHT22;3136;48.788;9.772;2023-04-03T03:37:03;3.50;99.90
6206;DHT22;3136;48.788;9.772;2023-04-03T03:39:29;3.50;99.90
6206;DHT22;3136;48.788;9.772;2023-04-03T03:41:55;3.50;99.90
6206;DHT22;3136;48.788;9.772;2023-04-03T03:44:21;3.50;99.90
6206;DHT22;3136;48.788;9.772;2023-04-03T03:46:46;3.50;99.90
6206;DHT22;3136;48.788;9.772;2023-04-03T03:49:12;3.50;99.90
6206;DHT22;3136;48.788;9.772;2023-04-03T03:51:38;3.50;99.90
6206;DHT22;3136;48.788;9.772;2023-04-03T03:54:04;3.50;99.90
6206;DHT22;3136;48.788;9.772;2023-04-03T03:56:30;3.50;99.90
6206;DHT22;3136;48.788;9.772;2023-04-03T03:58:56;3.40;99.90
6206;DHT22;3136;48.788;9.772;2023-04-03T04:01:22;3.50;99.90
6206;DHT22;3136;48.788;9.772;2023-04-03T04:03:48;3.50;99.90
6206;DHT22;3136;48.788;9.772;2023-04-03T04:06:14;3.50;99.90
6206;DHT22;3136;48.788;9.772;2023-04-03T04:08:40;3.40;99.90
6206;DHT22;3136;48.788;9.772;2023-04-03T04:11:06;3.40;99.90
6206;DHT22;3136;48.788;9.772;2023-04-03T04:13:31;3.40;99.90
6206;DHT22;3136;48.788;9.772;2023-04-03T04:15:57;3.40;99.90
6206;DHT22;3136;48.788;9.772;2023-04-03T04:18:22;3.40;99.90
6206;DHT22;3136;48.788;9.772;2023-04-03T04:20:49;3.40;99.90
6206;DHT22;3136;48.788;9.772;2023-04-03T04:23:15;3.40;99.90
6206;DHT22;3136;48.788;9.772;2023-04-03T04:25:40;3.40;99.90
6206;DHT22;3136;48.788;9.772;2023-04-03T04:28:06;3.40;99.90
6206;DHT22;3136;48.788;9.772;2023-04-03T04:30:32;3.30;99.90
6206;DHT22;3136;48.788;9.772;2023-04-03T04:32:57;3.30;99.90
6206;DHT22;3136;48.788;9.772;2023-04-03T04:35:23;3.30;99.90
6206;DHT22;3136;48.788;9.772;2023-04-03T04:37:48;3.30;99.90
6206;DHT22;3136;48.788;9.772;2023-04-03T04:40:14;3.30;99.90
6206;DHT22;3136;48.788;9.772;2023-04-03T04:42:39;3.20;99.90
6206;DHT22;3136;48.788;9.772;2023-04-03T04:45:05;3.20;99.90
6206;DHT22;3136;48.788;9.772;2023-04-03T04:47:31;3.10;99.90
6206;DHT22;3136;48.788;9.772;2023-04-03T04:49:57;3.10;99.90
6206;DHT22;3136;48.788;9.772;2023-04-03T04:52:22;3.00;99.90
6206;DHT22;3136;48.788;9.772;2023-04-03T04:54:48;2.90;99.90
6206;DHT22;3136;48.788;9.772;2023-04-03T04:57:13;2.80;99.90
6206;DHT22;3136;48.788;9.772;2023-04-03T04:59:39;2.70;99.90
6206;DHT22;3136;48.788;9.772;2023-04-03T05:02:04;2.60;99.90
6206;DHT22;3136;48.788;9.772;2023-04-03T05:04:30;2.40;99.90
6206;DHT22;3136;48.788;9.772;2023-04-03T05:06:56;2.40;99.90
6206;DHT22;3136;48.788;9.772;2023-04-03T05:09:22;2.40;99.90
6206;DHT22;3136;48.788;9.772;2023-04-03T05:11:47;2.30;99.90
6206;DHT22;3136;48.788;9.772;2023-04-03T05:14:13;2.30;99.90
6206;DHT22;3136;48.788;9.772;2023-04-03T05:16:38;2.30;99.90
6206;DHT22;3136;48.788;9.772;2023-04-03T05:19:04;2.20;99.90
6206;DHT22;3136;48.788;9.772;2023-04-03T05:21:30;2.20;99.90
6206;DHT22;3136;48.788;9.772;2023-04-03T05:23:58;2.10;99.90
6206;DHT22;3136;48.788;9.772;2023-04-03T05:26:24;2.20;99.90
6206;DHT22;3136;48.788;9.772;2023-04-03T05:28:51;2.20;99.90
6206;DHT22;3136;48.788;9.772;2023-04-03T05:31:17;2.20;99.90
6206;DHT22;3136;48.788;9.772;2023-04-03T05:33:42;2.20;99.90
6206;DHT22;3136;48.788;9.772;2023-04-03T05:36:08;2.20;99.90
6206;DHT22;3136;48.788;9.772;2023-04-03T05:38:34;2.30;99.90
6206;DHT22;3136;48.788;9.772;2023-04-03T05:41:00;2.30;99.90
6206;DHT22;3136;48.788;9.772;2023-04-03T05:43:26;2.30;99.90
6206;DHT22;3136;48.788;9.772;2023-04-03T05:45:52;2.30;99.90
6206;DHT22;3136;48.788;9.772;2023-04-03T05:48:17;2.40;99.90
6206;DHT22;3136;48.788;9.772;2023-04-03T05:50:43;2.50;99.90
6206;DHT22;3136;48.788;9.772;2023-04-03T05:53:35;2.60;99.90
6206;DHT22;3136;48.788;9.772;2023-04-03T05:56:05;2.70;99.90
6206;DHT22;3136;48.788;9.772;2023-04-03T05:58:30;2.80;99.90
6206;DHT22;3136;48.788;9.772;2023-04-03T06:00:56;2.90;99.90
6206;DHT22;3136;48.788;9.772;2023-04-03T06:03:22;3.00;99.90
6206;DHT22;3136;48.788;9.772;2023-04-03T06:05:48;3.00;99.90
6206;DHT22;3136;48.788;9.772;2023-04-03T06:08:14;3.10;99.90
6206;DHT22;3136;48.788;9.772;2023-04-03T06:10:40;3.20;99.90
6206;DHT22;3136;48.788;9.772;2023-04-03T06:13:05;3.20;99.90
6206;DHT22;3136;48.788;9.772;2023-04-03T06:15:31;3.30;99.90
6206;DHT22;3136;48.788;9.772;2023-04-03T06:17:57;3.30;99.90
6206;DHT22;3136;48.788;9.772;2023-04-03T06:20:22;3.40;99.90
6206;DHT22;3136;48.788;9.772;2023-04-03T06:22:48;3.50;99.90
6206;DHT22;3136;48.788;9.772;2023-04-03T06:25:14;3.50;99.90
6206;DHT22;3136;48.788;9.772;2023-04-03T06:27:40;3.60;99.90
6206;DHT22;3136;48.788;9.772;2023-04-03T06:30:07;3.60;99.90
6206;DHT22;3136;48.788;9.772;2023-04-03T06:32:33;3.70;99.90
6206;DHT22;3136;48.788;9.772;2023-04-03T06:34:58;3.80;99.90
6206;DHT22;3136;48.788;9.772;2023-04-03T06:37:24;3.80;99.90
6206;DHT22;3136;48.788;9.772;2023-04-03T06:39:54;3.90;99.90
6206;DHT22;3136;48.788;9.772;2023-04-03T06:42:20;4.00;99.90
6206;DHT22;3136;48.788;9.772;2023-04-03T06:44:46;4.00;99.90
6206;DHT22;3136;48.788;9.772;2023-04-03T06:47:16;4.10;99.90
6206;DHT22;3136;48.788;9.772;2023-04-03T06:49:42;4.00;99.90
6206;DHT22;3136;48.788;9.772;2023-04-03T06:52:08;4.10;99.90
6206;DHT22;3136;48.788;9.772;2023-04-03T06:54:35;4.20;99.90
6206;DHT22;3136;48.788;9.772;2023-04-03T06:57:01;4.20;99.90
6206;DHT22;3136;48.788;9.772;2023-04-03T06:59:26;4.20;99.90
6206;DHT22;3136;48.788;9.772;2023-04-03T07:01:52;4.40;99.90
6206;DHT22;3136;48.788;9.772;2023-04-03T07:04:18;4.40;99.90
6206;DHT22;3136;48.788;9.772;2023-04-03T07:06:46;4.40;99.90
6206;DHT22;3136;48.788;9.772;2023-04-03T07:09:12;4.40;99.90
6206;DHT22;3136;48.788;9.772;2023-04-03T07:11:38;4.50;99.90
6206;DHT22;3136;48.788;9.772;2023-04-03T07:14:03;4.60;99.90
6206;DHT22;3136;48.788;9.772;2023-04-03T07:16:29;4.70;99.90
6206;DHT22;3136;48.788;9.772;2023-04-03T07:18:56;4.70;99.90
6206;DHT22;3136;48.788;9.772;2023-04-03T07:21:22;4.70;99.90
6206;DHT22;3136;48.788;9.772;2023-04-03T07:23:48;4.80;99.90
6206;DHT22;3136;48.788;9.772;2023-04-03T07:26:13;4.70;99.90
6206;DHT22;3136;48.788;9.772;2023-04-03T07:28:39;4.70;99.90
6206;DHT22;3136;48.788;9.772;2023-04-03T07:31:10;4.80;99.90
6206;DHT22;3136;48.788;9.772;2023-04-03T07:33:37;4.80;99.90
6206;DHT22;3136;48.788;9.772;2023-04-03T07:36:03;4.80;99.90
6206;DHT22;3136;48.788;9.772;2023-04-03T07:38:30;4.90;99.90
6206;DHT22;3136;48.788;9.772;2023-04-03T07:40:56;4.90;99.90
6206;DHT22;3136;48.788;9.772;2023-04-03T07:43:22;5.00;99.90
6206;DHT22;3136;48.788;9.772;2023-04-03T07:45:49;5.20;99.90
6206;DHT22;3136;48.788;9.772;2023-04-03T07:48:19;5.30;99.10
6206;DHT22;3136;48.788;9.772;2023-04-03T07:50:45;5.40;97.80
6206;DHT22;3136;48.788;9.772;2023-04-03T07:53:11;5.60;98.80
6206;DHT22;3136;48.788;9.772;2023-04-03T07:55:37;5.60;93.80
6206;DHT22;3136;48.788;9.772;2023-04-03T07:58:13;5.50;90.10
6206;DHT22;3136;48.788;9.772;2023-04-03T08:00:40;5.60;92.80
6206;DHT22;3136;48.788;9.772;2023-04-03T08:03:06;5.60;91.30
6206;DHT22;3136;48.788;9.772;2023-04-03T08:05:37;5.60;85.90
6206;DHT22;3136;48.788;9.772;2023-04-03T08:08:03;5.60;84.20
6206;DHT22;3136;48.788;9.772;2023-04-03T08:10:30;5.60;90.60
6206;DHT22;3136;48.788;9.772;2023-04-03T08:12:55;5.70;90.40
6206;DHT22;3136;48.788;9.772;2023-04-03T08:15:21;5.80;93.20
6206;DHT22;3136;48.788;9.772;2023-04-03T08:17:47;5.90;80.50
6206;DHT22;3136;48.788;9.772;2023-04-03T08:20:13;5.80;76.70
6206;DHT22;3136;48.788;9.772;2023-04-03T08:22:38;5.80;77.30
6206;DHT22;3136;48.788;9.772;2023-04-03T08:25:04;5.90;81.50
6206;DHT22;3136;48.788;9.772;2023-04-03T08:27:30;5.90;73.10
6206;DHT22;3136;48.788;9.772;2023-04-03T08:29:56;6.00;70.00
6206;DHT22;3136;48.788;9.772;2023-04-03T08:32:22;6.10;69.80
6206;DHT22;3136;48.788;9.772;2023-04-03T08:34:48;6.20;67.70
6206;DHT22;3136;48.788;9.772;2023-04-03T08:37:13;6.30;64.00
6206;DHT22;3136;48.788;9.772;2023-04-03T08:39:41;6.30;63.20
6206;DHT22;3136;48.788;9.772;2023-04-03T08:45:13;6.50;77.00
6206;DHT22;3136;48.788;9.772;2023-04-03T08:47:50;6.60;61.50
6206;DHT22;3136;48.788;9.772;2023-04-03T08:50:20;6.80;53.20
6206;DHT22;3136;48.788;9.772;2023-04-03T08:52:52;6.90;52.50
6206;DHT22;3136;48.788;9.772;2023-04-03T08:58:12;7.20;52.60
6206;DHT22;3136;48.788;9.772;2023-04-03T09:03:20;7.50;45.10
6206;DHT22;3136;48.788;9.772;2023-04-03T09:08:44;7.60;43.60
6206;DHT22;3136;48.788;9.772;2023-04-03T09:11:27;7.70;41.40
6206;DHT22;3136;48.788;9.772;2023-04-03T09:14:20;7.60;39.50
6206;DHT22;3136;48.788;9.772;2023-04-03T09:16:56;7.50;42.30
6206;DHT22;3136;48.788;9.772;2023-04-03T09:22:21;7.30;39.00
6206;DHT22;3136;48.788;9.772;2023-04-03T09:25:18;7.10;40.30
6206;DHT22;3136;48.788;9.772;2023-04-03T09:27:45;7.10;42.20
6206;DHT22;3136;48.788;9.772;2023-04-03T09:30:19;7.00;38.50
6206;DHT22;3136;48.788;9.772;2023-04-03T09:32:47;7.00;40.10
6206;DHT22;3136;48.788;9.772;2023-04-03T09:37:54;6.80;39.00
6206;DHT22;3136;48.788;9.772;2023-04-03T09:42:58;6.80;41.60
6206;DHT22;3136;48.788;9.772;2023-04-03T09:45:30;6.80;40.70
6206;DHT22;3136;48.788;9.772;2023-04-03T09:50:33;6.80;38.40
6206;DHT22;3136;48.788;9.772;2023-04-03T09:53:05;6.70;36.10
6206;DHT22;3136;48.788;9.772;2023-04-03T09:55:32;6.70;37.50
6206;DHT22;3136;48.788;9.772;2023-04-03T09:58:00;6.80;36.90
6206;DHT22;3136;48.788;9.772;2023-04-03T10:00:38;6.80;35.80
6206;DHT22;3136;48.788;9.772;2023-04-03T10:03:27;6.90;36.50
6206;DHT22;3136;48.788;9.772;2023-04-03T10:05:53;7.00;35.90
6206;DHT22;3136;48.788;9.772;2023-04-03T10:08:25;7.00;33.60
6206;DHT22;3136;48.788;9.772;2023-04-03T10:13:36;7.10;35.10
6206;DHT22;3136;48.788;9.772;2023-04-03T10:16:20;7.00;31.70
6206;DHT22;3136;48.788;9.772;2023-04-03T10:21:34;6.90;31.40
6206;DHT22;3136;48.788;9.772;2023-04-03T10:27:04;7.00;29.80
6206;DHT22;3136;48.788;9.772;2023-04-03T10:29:40;6.80;28.80
6206;DHT22;3136;48.788;9.772;2023-04-03T10:35:12;6.70;27.80
6206;DHT22;3136;48.788;9.772;2023-04-03T10:41:02;6.50;27.80
6206;DHT22;3136;48.788;9.772;2023-04-03T10:43:50;6.50;27.80
6206;DHT22;3136;48.788;9.772;2023-04-03T10:46:27;6.50;46.90
6206;DHT22;3136;48.788;9.772;2023-04-03T10:51:45;6.80;28.10
6206;DHT22;3136;48.788;9.772;2023-04-03T10:54:20;7.00;27.20
6206;DHT22;3136;48.788;9.772;2023-04-03T10:57:06;7.00;26.20
6206;DHT22;3136;48.788;9.772;2023-04-03T10:59:35;7.10;26.20
6206;DHT22;3136;48.788;9.772;2023-04-03T11:04:43;7.20;25.90
6206;DHT22;3136;48.788;9.772;2023-04-03T11:07:25;7.40;25.00
6206;DHT22;3136;48.788;9.772;2023-04-03T11:09:55;7.60;26.10
6206;DHT22;3136;48.788;9.772;2023-04-03T11:14:55;7.40;23.90
6206;DHT22;3136;48.788;9.772;2023-04-03T11:17:28;7.50;23.70
6206;DHT22;3136;48.788;9.772;2023-04-03T11:22:32;7.60;23.30
6206;DHT22;3136;48.788;9.772;2023-04-03T11:30:40;7.80;22.40
6206;DHT22;3136;48.788;9.772;2023-04-03T11:33:21;7.70;22.40
6206;DHT22;3136;48.788;9.772;2023-04-03T11:35:57;7.50;22.20
6206;DHT22;3136;48.788;9.772;2023-04-03T11:38:28;7.30;22.50
6206;DHT22;3136;48.788;9.772;2023-04-03T11:40:57;7.30;23.60
6206;DHT22;3136;48.788;9.772;2023-04-03T11:43:30;7.20;23.10
6206;DHT22;3136;48.788;9.772;2023-04-03T11:46:04;7.40;23.50
6206;DHT22;3136;48.788;9.772;2023-04-03T11:50:59;7.50;23.40
6206;DHT22;3136;48.788;9.772;2023-04-03T11:53:37;7.70;40.90
6206;DHT22;3136;48.788;9.772;2023-04-03T12:01:53;7.90;22.60
6206;DHT22;3136;48.788;9.772;2023-04-03T12:04:21;7.80;22.20
6206;DHT22;3136;48.788;9.772;2023-04-03T12:09:32;7.90;22.10
6206;DHT22;3136;48.788;9.772;2023-04-03T12:12:00;7.90;22.30
6206;DHT22;3136;48.788;9.772;2023-04-03T12:14:25;8.00;22.40
6206;DHT22;3136;48.788;9.772;2023-04-03T12:16:56;8.00;22.40
6206;DHT22;3136;48.788;9.772;2023-04-03T12:19:39;8.00;22.40
6206;DHT22;3136;48.788;9.772;2023-04-03T12:22:12;7.90;21.00
6206;DHT22;3136;48.788;9.772;2023-04-03T12:24:40;7.90;21.10
6206;DHT22;3136;48.788;9.772;2023-04-03T12:27:29;7.80;20.90
6206;DHT22;3136;48.788;9.772;2023-04-03T12:30:05;7.70;20.90
6206;DHT22;3136;48.788;9.772;2023-04-03T12:42:02;8.00;21.50
6206;DHT22;3136;48.788;9.772;2023-04-03T12:44:43;8.30;20.30
6206;DHT22;3136;48.788;9.772;2023-04-03T12:47:22;8.50;19.00
6206;DHT22;3136;48.788;9.772;2023-04-03T12:49:49;8.60;19.20
6206;DHT22;3136;48.788;9.772;2023-04-03T12:52:41;8.70;19.60
6206;DHT22;3136;48.788;9.772;2023-04-03T12:55:17;8.60;17.80
6206;DHT22;3136;48.788;9.772;2023-04-03T12:57:43;8.70;17.80
6206;DHT22;3136;48.788;9.772;2023-04-03T13:00:40;8.80;19.20
6206;DHT22;3136;48.788;9.772;2023-04-03T13:03:06;8.90;17.60
6206;DHT22;3136;48.788;9.772;2023-04-03T13:05:32;9.10;17.00
6206;DHT22;3136;48.788;9.772;2023-04-03T13:08:05;9.00;17.30
6206;DHT22;3136;48.788;9.772;2023-04-03T13:10:32;8.90;16.50
6206;DHT22;3136;48.788;9.772;2023-04-03T13:13:09;8.80;16.20
6206;DHT22;3136;48.788;9.772;2023-04-03T13:15:44;8.70;16.80
6206;DHT22;3136;48.788;9.772;2023-04-03T13:18:35;9.10;16.50
6206;DHT22;3136;48.788;9.772;2023-04-03T13:23:32;9.70;14.60
6206;DHT22;3136;48.788;9.772;2023-04-03T13:26:00;10.60;14.70
6206;DHT22;3136;48.788;9.772;2023-04-03T13:28:29;11.20;16.40
6206;DHT22;3136;48.788;9.772;2023-04-03T13:31:02;11.10;14.70
6206;DHT22;3136;48.788;9.772;2023-04-03T13:33:31;10.60;14.40
6206;DHT22;3136;48.788;9.772;2023-04-03T13:36:07;9.90;14.10
6206;DHT22;3136;48.788;9.772;2023-04-03T13:38:35;9.40;14.70
6206;DHT22;3136;48.788;9.772;2023-04-03T13:41:05;9.10;14.20
6206;DHT22;3136;48.788;9.772;2023-04-03T13:43:45;8.80;13.90
6206;DHT22;3136;48.788;9.772;2023-04-03T13:48:42;8.50;14.40
6206;DHT22;3136;48.788;9.772;2023-04-03T13:53:46;8.70;15.20
6206;DHT22;3136;48.788;9.772;2023-04-03T13:58:54;8.70;16.20
6206;DHT22;3136;48.788;9.772;2023-04-03T14:01:22;8.90;14.40
6206;DHT22;3136;48.788;9.772;2023-04-03T14:03:59;9.30;13.90
6206;DHT22;3136;48.788;9.772;2023-04-03T14:06:25;11.50;12.90
6206;DHT22;3136;48.788;9.772;2023-04-03T14:08:52;13.90;12.30
6206;DHT22;3136;48.788;9.772;2023-04-03T14:11:21;15.90;12.50
6206;DHT22;3136;48.788;9.772;2023-04-03T14:13:48;16.90;13.80
6206;DHT22;3136;48.788;9.772;2023-04-03T14:16:15;16.80;13.90
6206;DHT22;3136;48.788;9.772;2023-04-03T14:18:42;15.40;10.90
6206;DHT22;3136;48.788;9.772;2023-04-03T14:21:11;14.30;8.80
6206;DHT22;3136;48.788;9.772;2023-04-03T14:23:38;12.80;9.70
6206;DHT22;3136;48.788;9.772;2023-04-03T14:26:08;12.20;10.40
6206;DHT22;3136;48.788;9.772;2023-04-03T14:28:35;11.30;7.80
6206;DHT22;3136;48.788;9.772;2023-04-03T14:31:01;10.60;8.60
6206;DHT22;3136;48.788;9.772;2023-04-03T14:33:26;10.00;8.90
6206;DHT22;3136;48.788;9.772;2023-04-03T14:35:54;9.50;8.40
6206;DHT22;3136;48.788;9.772;2023-04-03T14:38:28;9.20;10.50
6206;DHT22;3136;48.788;9.772;2023-04-03T14:40:55;8.80;8.80
6206;DHT22;3136;48.788;9.772;2023-04-03T14:43:20;8.50;8.20
6206;DHT22;3136;48.788;9.772;2023-04-03T14:45:47;8.40;8.40
6206;DHT22;3136;48.788;9.772;2023-04-03T14:48:22;8.40;9.70
6206;DHT22;3136;48.788;9.772;2023-04-03T14:50:49;8.50;9.40
6206;DHT22;3136;48.788;9.772;2023-04-03T14:53:15;8.70;9.10
6206;DHT22;3136;48.788;9.772;2023-04-03T14:55:43;9.10;7.80
6206;DHT22;3136;48.788;9.772;2023-04-03T14:58:13;9.60;9.10
6206;DHT22;3136;48.788;9.772;2023-04-03T15:00:38;9.60;7.80
6206;DHT22;3136;48.788;9.772;2023-04-03T15:03:04;9.30;9.90
6206;DHT22;3136;48.788;9.772;2023-04-03T15:05:29;9.00;9.50
6206;DHT22;3136;48.788;9.772;2023-04-03T15:07:57;8.80;9.40
6206;DHT22;3136;48.788;9.772;2023-04-03T15:10:28;8.50;9.40
6206;DHT22;3136;48.788;9.772;2023-04-03T15:12:54;8.20;8.00
6206;DHT22;3136;48.788;9.772;2023-04-03T15:15:22;8.00;7.00
6206;DHT22;3136;48.788;9.772;2023-04-03T15:17:51;7.90;8.90
6206;DHT22;3136;48.788;9.772;2023-04-03T15:20:24;7.90;9.00
6206;DHT22;3136;48.788;9.772;2023-04-03T15:22:50;7.90;8.50
6206;DHT22;3136;48.788;9.772;2023-04-03T15:25:16;7.80;8.40
6206;DHT22;3136;48.788;9.772;2023-04-03T15:27:42;7.90;9.00
6206;DHT22;3136;48.788;9.772;2023-04-03T15:30:13;8.20;10.50
6206;DHT22;3136;48.788;9.772;2023-04-03T15:32:39;8.90;8.50
6206;DHT22;3136;48.788;9.772;2023-04-03T15:35:05;9.20;10.20
6206;DHT22;3136;48.788;9.772;2023-04-03T15:37:30;9.20;8.60
6206;DHT22;3136;48.788;9.772;2023-04-03T15:39:56;9.00;8.40
6206;DHT22;3136;48.788;9.772;2023-04-03T15:42:22;8.80;8.60
6206;DHT22;3136;48.788;9.772;2023-04-03T15:44:47;8.60;8.00
6206;DHT22;3136;48.788;9.772;2023-04-03T15:47:13;8.30;8.00
6206;DHT22;3136;48.788;9.772;2023-04-03T15:49:39;8.10;8.50
6206;DHT22;3136;48.788;9.772;2023-04-03T15:52:04;7.90;8.70
6206;DHT22;3136;48.788;9.772;2023-04-03T15:54:30;7.60;8.50
6206;DHT22;3136;48.788;9.772;2023-04-03T15:56:56;7.40;9.00
6206;DHT22;3136;48.788;9.772;2023-04-03T15:59:22;7.20;9.10
6206;DHT22;3136;48.788;9.772;2023-04-03T16:01:48;7.10;8.10
6206;DHT22;3136;48.788;9.772;2023-04-03T16:04:15;6.90;8.70
6206;DHT22;3136;48.788;9.772;2023-04-03T16:06:41;6.70;8.10
6206;DHT22;3136;48.788;9.772;2023-04-03T16:09:07;6.70;8.00
6206;DHT22;3136;48.788;9.772;2023-04-03T16:11:33;6.90;8.20
6206;DHT22;3136;48.788;9.772;2023-04-03T16:14:01;7.20;8.10
6206;DHT22;3136;48.788;9.772;2023-04-03T16:16:27;7.60;7.60
6206;DHT22;3136;48.788;9.772;2023-04-03T16:18:54;7.90;8.00
6206;DHT22;3136;48.788;9.772;2023-04-03T16:21:20;9.30;10.20
6206;DHT22;3136;48.788;9.772;2023-04-03T16:23:46;8.10;8.80
6206;DHT22;3136;48.788;9.772;2023-04-03T16:26:11;7.80;8.10
6206;DHT22;3136;48.788;9.772;2023-04-03T16:28:37;7.60;8.90
6206;DHT22;3136;48.788;9.772;2023-04-03T16:31:03;7.50;8.30
6206;DHT22;3136;48.788;9.772;2023-04-03T16:33:30;8.70;8.00
6206;DHT22;3136;48.788;9.772;2023-04-03T16:35:55;7.20;8.20
6206;DHT22;3136;48.788;9.772;2023-04-03T16:38:21;7.10;9.30
6206;DHT22;3136;48.788;9.772;2023-04-03T16:40:47;7.10;8.70
6206;DHT22;3136;48.788;9.772;2023-04-03T16:43:14;7.00;8.30
6206;DHT22;3136;48.788;9.772;2023-04-03T16:45:40;7.00;8.70
6206;DHT22;3136;48.788;9.772;2023-04-03T16:48:06;6.90;9.60
6206;DHT22;3136;48.788;9.772;2023-04-03T16:50:31;6.80;9.90
6206;DHT22;3136;48.788;9.772;2023-04-03T16:52:57;6.70;9.30
6206;DHT22;3136;48.788;9.772;2023-04-03T16:55:23;6.50;9.40
6206;DHT22;3136;48.788;9.772;2023-04-03T16:57:48;6.40;9.20
6206;DHT22;3136;48.788;9.772;2023-04-03T17:00:14;6.30;9.20
6206;DHT22;3136;48.788;9.772;2023-04-03T17:02:40;6.20;8.70
6206;DHT22;3136;48.788;9.772;2023-04-03T17:05:06;6.20;9.80
6206;DHT22;3136;48.788;9.772;2023-04-03T17:07:32;6.10;9.20
6206;DHT22;3136;48.788;9.772;2023-04-03T17:09:58;6.10;9.50
6206;DHT22;3136;48.788;9.772;2023-04-03T17:12:24;6.00;9.20
6206;DHT22;3136;48.788;9.772;2023-04-03T17:14:49;6.30;9.40
6206;DHT22;3136;48.788;9.772;2023-04-03T17:17:17;6.10;8.90
6206;DHT22;3136;48.788;9.772;2023-04-03T17:19:43;6.10;9.70
6206;DHT22;3136;48.788;9.772;2023-04-03T17:22:09;6.10;10.30
6206;DHT22;3136;48.788;9.772;2023-04-03T17:24:35;6.10;9.90
6206;DHT22;3136;48.788;9.772;2023-04-03T17:27:01;6.10;9.40
6206;DHT22;3136;48.788;9.772;2023-04-03T17:29:33;6.10;1.00
6206;DHT22;3136;48.788;9.772;2023-04-03T17:31:59;6.10;10.50
6206;DHT22;3136;48.788;9.772;2023-04-03T17:34:25;6.00;9.70
6206;DHT22;3136;48.788;9.772;2023-04-03T17:36:50;5.90;9.50
6206;DHT22;3136;48.788;9.772;2023-04-03T17:39:16;5.80;9.70
6206;DHT22;3136;48.788;9.772;2023-04-03T17:41:41;5.70;8.80
6206;DHT22;3136;48.788;9.772;2023-04-03T17:44:07;5.60;10.80
6206;DHT22;3136;48.788;9.772;2023-04-03T17:46:33;5.60;11.30
6206;DHT22;3136;48.788;9.772;2023-04-03T17:48:58;5.50;10.80
6206;DHT22;3136;48.788;9.772;2023-04-03T17:51:25;5.50;10.20
6206;DHT22;3136;48.788;9.772;2023-04-03T17:53:51;5.50;10.20
6206;DHT22;3136;48.788;9.772;2023-04-03T17:56:19;5.40;10.80